This is the latest recevied weather packets stored in our database for station/object OK9CPU-9. If no packets are shown the sender has not sent any weather packets the latest 10 day(s).
| Time | Temp. | Humidity | Pressure | Rain* | Wind** | Luminosity | Snow |
|---|---|---|---|---|---|---|---|
| 1777139455 | 18.33° C | 33% | 1011.7 hPa | - | - | - | - |
| 1777138468 | 19.44° C | 32% | 1011.6 hPa | - | - | - | - |
| 1777137472 | 20.56° C | 31% | 1011.5 hPa | - | - | - | - |
| 1777136470 | 21.11° C | 31% | 1011.5 hPa | - | - | - | - |
| 1777135475 | 22.22° C | 30% | 1011.6 hPa | - | - | - | - |
| 1777134480 | 23.33° C | 29% | 1011.6 hPa | - | - | - | - |
| 1777133485 | 23.89° C | 28% | 1011.6 hPa | - | - | - | - |
| 1777132490 | 24.44° C | 28% | 1011.7 hPa | - | - | - | - |
| 1777129505 | 29.44° C | 22% | 1011.7 hPa | - | - | - | - |
| 1777128510 | 31.11° C | 21% | 1011.9 hPa | - | - | - | - |
| 1777127522 | 32.22° C | 20% | 1011.8 hPa | - | - | - | - |
| 1777126527 | 32.22° C | 18% | 1011.9 hPa | - | - | - | - |
| 1777125525 | 32.78° C | 17% | 1012.1 hPa | - | - | - | - |
| 1777123535 | 33.89° C | 17% | 1012.3 hPa | - | - | - | - |
| 1777122547 | 33.33° C | 16% | 1012.3 hPa | - | - | - | - |
| 1777121552 | 36.67° C | 21% | 1012.5 hPa | - | - | - | - |
| 1777120557 | 36.11° C | 21% | 1012.6 hPa | - | - | - | - |
| 1777118561 | 36.67° C | 21% | 1013 hPa | - | - | - | - |
| 1777117572 | 36.67° C | 21% | 1013.3 hPa | - | - | - | - |
| 1777116569 | 37.22° C | 21% | 1013.5 hPa | - | - | - | - |
| 1777114587 | 38.33° C | 19% | 1014 hPa | - | - | - | - |
| 1777113584 | 38.33° C | 19% | 1014.2 hPa | - | - | - | - |
| 1777111601 | 37.78° C | 19% | 1014.5 hPa | - | - | - | - |
| 1777105624 | 33.33° C | 19% | 1015.5 hPa | - | - | - | - |
| 1777104636 | 32.22° C | 19% | 1015.6 hPa | - | - | - | - |
* Rain since midnight (hover to see other rain measurements)
** Current wind speed in m/s (hover to see current wind gust speed)